Time;durP1;ratioP1;P1;durP2;ratioP2;P2;SDS_P1;SDS_P2;PMS_P1;PMS_P2;Temp;Humidity;BMP_temperature;BMP_pressure;BME280_temperature;BME280_humidity;BME280_pressure;Samples;Min_cycle;Max_cycle;Signal;HPM_P1;HPM_P2
2021/05/02 00:01:13;;;;;;;22.35;17.20;;;;;;;8.64;82.85;100153.91;1679644;83;28235;-75
2021/05/02 00:03:41;;;;;;;23.32;16.77;;;;;;;8.66;82.90;100154.55;1717246;82;25454;-75
2021/05/02 00:06:11;;;;;;;23.92;16.97;;;;;;;8.64;82.90;100150.70;1691390;82;26406;-75
2021/05/02 00:08:39;;;;;;;26.70;18.50;;;;;;;8.64;82.84;100151.23;1706754;83;25909;-75
2021/05/02 00:11:09;;;;;;;23.32;18.02;;;;;;;8.62;82.78;100144.72;1716722;82;25854;-75
2021/05/02 00:13:39;;;;;;;22.17;16.95;;;;;;;8.63;82.76;100150.39;1723513;82;27347;-75
2021/05/02 00:16:08;;;;;;;24.00;17.32;;;;;;;8.63;82.78;100145.06;1731310;81;26019;-74
2021/05/02 00:18:36;;;;;;;23.73;18.05;;;;;;;8.63;82.71;100147.73;1695724;83;26546;-74
2021/05/02 00:21:10;;;;;;;23.70;16.40;;;;;;;8.64;82.73;100149.37;1680778;83;26382;-74
2021/05/02 00:23:41;;;;;;;20.92;15.43;;;;;;;8.63;82.59;100146.39;1678391;83;25969;-75
2021/05/02 00:26:10;;;;;;;22.40;16.40;;;;;;;8.64;82.57;100149.89;1703178;83;28443;-75
2021/05/02 00:28:48;;;;;;;20.77;16.20;;;;;;;8.63;82.50;100146.39;1698877;81;25571;-75
2021/05/02 00:31:17;;;;;;;24.43;16.70;;;;;;;8.64;82.42;100137.35;1699278;83;26297;-75
2021/05/02 00:33:45;;;;;;;21.97;15.93;;;;;;;8.65;82.43;100133.69;1714825;82;26352;-75
2021/05/02 00:36:14;;;;;;;20.95;15.75;;;;;;;8.65;82.41;100131.02;1721736;82;25730;-75
2021/05/02 00:38:42;;;;;;;21.70;16.67;;;;;;;8.65;82.31;100130.18;1688305;83;27548;-75
2021/05/02 00:41:32;;;;;;;19.98;16.05;;;;;;;8.66;82.29;100138.52;1711535;82;25881;-75
2021/05/02 00:44:08;;;;;;;19.48;15.50;;;;;;;8.66;82.20;100129.18;1720569;82;25960;-74
2021/05/02 00:46:46;;;;;;;21.40;15.85;;;;;;;8.66;82.19;100140.66;1755567;80;25847;-75
2021/05/02 00:49:18;;;;;;;23.10;15.65;;;;;;;8.66;82.17;100141.19;1741154;80;25778;-75
2021/05/02 00:51:57;;;;;;;18.00;15.03;;;;;;;8.66;82.12;100138.52;1715612;82;28443;-75
2021/05/02 00:54:39;;;;;;;19.67;14.85;;;;;;;8.66;82.15;100133.19;1729582;82;25931;-75
2021/05/02 00:57:29;;;;;;;20.85;14.25;;;;;;;8.65;82.07;100126.17;1729766;82;25791;-75
2021/05/02 01:00:07;;;;;;;20.07;14.37;;;;;;;8.62;82.02;100127.37;1713514;82;25921;-75
2021/05/02 01:02:35;;;;;;;19.10;14.75;;;;;;;8.61;82.01;100127.56;1710256;82;25888;-75
2021/05/02 01:05:12;;;;;;;20.80;15.15;;;;;;;8.61;82.03;100131.56;1719207;82;27335;-75
2021/05/02 01:07:42;;;;;;;21.75;15.45;;;;;;;8.61;81.96;100130.23;1685927;82;25844;-75
2021/05/02 01:10:15;;;;;;;19.55;15.93;;;;;;;8.61;82.04;100141.75;1714444;82;25849;-74
2021/05/02 01:12:53;;;;;;;19.27;13.98;;;;;;;8.62;81.95;100150.59;1726752;82;27039;-74
2021/05/02 01:15:31;;;;;;;20.23;14.87;;;;;;;8.60;81.95;100137.41;1734795;82;25400;-75
2021/05/02 01:18:03;;;;;;;19.32;14.50;;;;;;;8.60;81.94;100132.59;1718481;82;27609;-74
2021/05/02 01:20:34;;;;;;;21.12;16.02;;;;;;;8.59;81.90;100128.25;1760732;80;26532;-75
2021/05/02 01:23:27;;;;;;;21.50;16.10;;;;;;;8.57;81.97;100125.78;1708200;83;25705;-75
2021/05/02 01:25:59;;;;;;;21.17;16.25;;;;;;;8.57;81.97;100124.45;1711801;82;26448;-74
2021/05/02 01:28:37;;;;;;;17.00;13.80;;;;;;;8.60;82.06;100113.91;1789326;76;25713;-75
2021/05/02 01:31:05;;;;;;;21.23;14.90;;;;;;;8.54;81.97;100113.62;1728333;81;26711;-75
2021/05/02 01:33:33;;;;;;;18.67;14.47;;;;;;;8.56;81.95;100100.08;1709024;82;27316;-74
2021/05/02 01:36:00;;;;;;;18.90;14.25;;;;;;;8.54;81.93;100081.59;1732660;82;25825;-75
2021/05/02 01:38:28;;;;;;;19.95;15.25;;;;;;;8.52;82.07;100076.95;1677480;82;25931;-75
2021/05/02 01:40:56;;;;;;;20.72;14.60;;;;;;;8.48;82.06;100071.67;1724717;82;26520;-75
2021/05/02 01:43:24;;;;;;;22.00;16.02;;;;;;;8.48;82.10;100053.48;1702999;82;25928;-74
2021/05/02 01:45:53;;;;;;;19.80;14.80;;;;;;;8.48;82.13;100057.48;1733557;82;28429;-75
2021/05/02 01:48:23;;;;;;;20.05;14.10;;;;;;;8.47;82.18;100048.64;1685918;82;25820;-75
2021/05/02 01:51:06;;;;;;;19.43;14.03;;;;;;;8.45;82.14;100047.17;1717365;82;25812;-75
2021/05/02 01:53:33;;;;;;;17.95;13.55;;;;;;;8.45;82.18;100041.83;1710780;82;25763;-75
2021/05/02 01:56:01;;;;;;;19.80;14.13;;;;;;;8.43;82.33;100025.18;1735755;82;25720;-75
2021/05/02 01:58:30;;;;;;;20.08;15.08;;;;;;;8.41;82.31;100025.88;1693772;82;27557;-75
2021/05/02 02:01:11;;;;;;;20.97;14.98;;;;;;;8.39;82.37;100028.73;1688179;82;25998;-74
2021/05/02 02:03:38;;;;;;;24.98;14.28;;;;;;;8.39;82.36;100023.91;1696490;83;26409;-75
2021/05/02 02:06:07;;;;;;;18.52;14.07;;;;;;;8.40;82.40;100012.23;1731307;82;26601;-75
2021/05/02 02:08:35;;;;;;;17.65;13.62;;;;;;;8.41;82.31;100004.52;1731948;82;25417;-75
2021/05/02 02:11:02;;;;;;;19.85;15.35;;;;;;;8.41;82.28;99996.02;1718100;82;27540;-75
2021/05/02 02:13:30;;;;;;;21.75;14.13;;;;;;;8.42;82.28;100011.53;1703677;82;25869;-75
2021/05/02 02:15:57;;;;;;;16.20;13.50;;;;;;;8.42;82.31;100009.70;1732327;82;25788;-75
2021/05/02 02:18:25;;;;;;;16.93;13.25;;;;;;;8.42;82.21;99992.85;1698213;82;26493;-75
2021/05/02 02:20:55;;;;;;;20.23;14.38;;;;;;;8.41;82.24;99989.34;1705980;82;25853;-75
2021/05/02 02:23:30;;;;;;;18.30;12.80;;;;;;;8.41;82.26;99981.34;1671536;83;27339;-75
2021/05/02 02:26:21;;;;;;;19.07;13.43;;;;;;;8.41;82.21;99974.67;1700124;83;26369;-75
2021/05/02 02:28:53;;;;;;;23.65;14.33;;;;;;;8.40;82.18;99961.52;1668873;83;25996;-74
2021/05/02 02:31:23;;;;;;;19.07;13.98;;;;;;;8.39;82.21;99966.52;1656938;83;26447;-75
2021/05/02 02:33:51;;;;;;;17.48;13.72;;;;;;;8.40;82.20;99974.87;1662846;84;26368;-75
2021/05/02 02:36:19;;;;;;;18.57;13.55;;;;;;;8.40;82.18;99964.19;1694872;83;28445;-74
2021/05/02 02:38:46;;;;;;;18.42;13.75;;;;;;;8.41;82.21;99951.15;1652434;83;25807;-75
2021/05/02 02:41:17;;;;;;;17.77;13.72;;;;;;;8.41;82.14;99941.31;1692041;82;25819;-75
2021/05/02 02:43:53;;;;;;;;;;;;;;;8.41;82.09;99934.64;1670518;83;26474;-75
2021/05/02 02:46:21;;;;;;;18.92;13.78;;;;;;;8.43;82.15;99952.63;1673551;85;26471;-75
2021/05/02 02:48:55;;;;;;;22.22;13.50;;;;;;;8.41;82.12;99944.48;1670056;85;28462;-75
2021/05/02 02:51:26;;;;;;;19.85;13.98;;;;;;;8.41;82.12;99929.30;1646794;85;26502;-76
2021/05/02 02:53:56;;;;;;;18.05;12.70;;;;;;;8.41;82.17;99911.95;1642097;86;25800;-75
2021/05/02 02:56:24;;;;;;;19.95;14.20;;;;;;;8.40;82.22;99898.28;1623925;85;26445;-75
2021/05/02 02:59:08;;;;;;;19.02;13.72;;;;;;;8.38;82.21;99877.63;1671689;84;26203;-75
2021/05/02 03:01:42;;;;;;;18.12;12.95;;;;;;;8.38;82.22;99884.83;1668349;85;28563;-75
2021/05/02 03:04:11;;;;;;;18.25;13.30;;;;;;;8.37;82.20;99874.66;1644438;85;26395;-75
2021/05/02 03:06:38;;;;;;;20.57;13.70;;;;;;;8.35;82.42;99878.53;1640550;85;26025;-75
2021/05/02 03:09:07;;;;;;;17.73;13.55;;;;;;;8.31;82.27;99883.42;1660808;85;25812;-76
2021/05/02 03:11:35;;;;;;;23.25;14.53;;;;;;;8.31;82.20;99888.77;1631730;85;25889;-75
2021/05/02 03:14:03;;;;;;;18.00;12.07;;;;;;;8.31;82.22;99887.43;1658175;85;27410;-76
2021/05/02 03:16:31;;;;;;;18.35;13.68;;;;;;;8.33;82.26;99880.56;1630856;85;26691;-75
2021/05/02 03:19:15;;;;;;;19.00;13.40;;;;;;;8.35;82.26;99877.20;1658207;85;26480;-75
2021/05/02 03:21:55;;;;;;;20.02;13.98;;;;;;;8.35;82.36;99874.02;1650412;85;26186;-75
2021/05/02 03:24:32;;;;;;;17.37;13.43;;;;;;;8.38;82.26;99879.50;1641880;85;25872;-76
2021/05/02 03:27:05;;;;;;;19.48;14.07;;;;;;;8.39;82.33;99877.13;1638635;85;28415;-74
2021/05/02 03:29:39;;;;;;;15.55;12.20;;;;;;;8.40;82.28;99866.78;1646429;84;25878;-76
2021/05/02 03:32:13;;;;;;;19.00;14.35;;;;;;;8.42;82.42;99871.42;1646143;85;25814;-75
2021/05/02 03:34:41;;;;;;;17.85;12.88;;;;;;;8.41;82.35;99865.25;1645934;85;26448;-76
2021/05/02 03:37:20;;;;;;;21.17;14.30;;;;;;;8.43;82.32;99876.56;1631725;85;26098;-75
2021/05/02 03:39:49;;;;;;;19.95;14.38;;;;;;;8.45;82.37;99865.69;1648726;85;27555;-76
2021/05/02 03:42:17;;;;;;;19.75;14.58;;;;;;;8.45;82.32;99851.84;1647649;85;26505;-75
2021/05/02 03:44:45;;;;;;;19.20;14.47;;;;;;;8.46;82.29;99843.33;1640474;85;26211;-75
2021/05/02 03:47:12;;;;;;;18.65;13.13;;;;;;;8.47;82.32;99839.63;1647359;85;25820;-75
2021/05/02 03:49:40;;;;;;;19.23;13.15;;;;;;;8.48;82.43;99831.95;1671464;85;25767;-75
2021/05/02 03:52:08;;;;;;;17.48;12.68;;;;;;;8.49;82.31;99825.58;1670144;85;27551;-75
2021/05/02 03:54:35;;;;;;;18.27;13.70;;;;;;;8.50;82.26;99825.92;1647580;85;25878;-75
2021/05/02 03:57:02;;;;;;;17.12;13.25;;;;;;;8.52;82.35;99824.71;1645873;85;25864;-75
2021/05/02 03:59:30;;;;;;;18.75;13.38;;;;;;;8.54;82.34;99831.19;1639018;85;26102;-76
2021/05/02 04:02:00;;;;;;;18.12;13.93;;;;;;;8.55;82.32;99826.98;1648563;85;26579;-75
2021/05/02 04:04:31;;;;;;;17.73;13.10;;;;;;;8.56;82.33;99838.48;1648185;85;27321;-75
2021/05/02 04:07:03;;;;;;;18.12;13.60;;;;;;;8.62;82.36;99839.58;1632166;85;26259;-75
2021/05/02 04:09:31;;;;;;;18.05;12.80;;;;;;;8.64;82.34;99830.87;1649156;85;26445;-75
2021/05/02 04:11:58;;;;;;;18.17;14.55;;;;;;;8.66;82.21;99834.17;1646796;85;25727;-75
2021/05/02 04:14:25;;;;;;;17.90;13.50;;;;;;;8.68;82.14;99838.30;1649444;85;26474;-75
2021/05/02 04:16:58;;;;;;;17.27;12.93;;;;;;;8.69;82.17;99838.61;1648252;85;28451;-75
2021/05/02 04:19:26;;;;;;;20.02;13.22;;;;;;;8.71;82.15;99834.39;1643810;85;26350;-75
2021/05/02 04:21:54;;;;;;;17.95;13.28;;;;;;;8.72;82.10;99835.56;1646314;85;26024;-75
2021/05/02 04:24:22;;;;;;;17.42;13.20;;;;;;;8.72;82.09;99827.55;1631504;85;25947;-75
2021/05/02 04:26:52;;;;;;;18.85;13.68;;;;;;;8.74;82.21;99824.17;1652763;83;25916;-75
2021/05/02 04:29:21;;;;;;;18.70;12.75;;;;;;;8.74;82.14;99812.16;1632271;83;27626;-75
2021/05/02 04:31:49;;;;;;;18.55;13.75;;;;;;;8.76;82.20;99815.96;1691510;83;25745;-75
2021/05/02 04:34:18;;;;;;;15.58;12.63;;;;;;;8.76;82.09;99804.78;1659055;84;25818;-75
2021/05/02 04:36:50;;;;;;;18.77;13.08;;;;;;;8.76;82.12;99806.11;1642004;84;26889;-75
2021/05/02 04:39:18;;;;;;;16.32;12.82;;;;;;;8.76;82.21;99808.78;1675994;84;25844;-75
2021/05/02 04:41:46;;;;;;;15.95;13.22;;;;;;;8.78;82.21;99797.91;1656176;84;27532;-75
2021/05/02 04:44:14;;;;;;;17.15;12.75;;;;;;;8.79;82.09;99794.22;1656666;84;25870;-75
2021/05/02 04:46:41;;;;;;;15.00;12.35;;;;;;;8.78;82.17;99785.38;1641164;84;25873;-75
2021/05/02 04:49:10;;;;;;;15.53;13.38;;;;;;;8.79;82.18;99780.34;1665235;84;25826;-75
2021/05/02 04:51:39;;;;;;;16.30;11.75;;;;;;;8.81;82.13;99768.95;1663045;84;26111;-75
2021/05/02 04:54:08;;;;;;;19.05;12.73;;;;;;;8.83;82.33;99767.44;1655929;84;28189;-76
2021/05/02 04:56:36;;;;;;;15.40;11.57;;;;;;;8.84;82.12;99759.23;1660108;84;25862;-75
2021/05/02 04:59:08;;;;;;;17.25;13.00;;;;;;;8.87;82.15;99758.84;1695024;83;25861;-75
2021/05/02 05:01:37;;;;;;;17.85;12.90;;;;;;;8.89;82.21;99758.64;1656619;84;25922;-75
2021/05/02 05:04:08;;;;;;;15.58;12.82;;;;;;;8.93;82.23;99761.23;1653256;84;26086;-75
2021/05/02 05:06:36;;;;;;;14.83;12.00;;;;;;;8.95;82.14;99744.00;1681719;84;27526;-75
2021/05/02 05:09:06;;;;;;;18.00;12.55;;;;;;;8.98;82.33;99752.93;1680636;84;26377;-75
2021/05/02 05:11:36;;;;;;;14.15;11.20;;;;;;;8.99;82.07;99751.92;1660271;84;26092;-75
2021/05/02 05:14:04;;;;;;;15.88;12.47;;;;;;;9.02;82.07;99757.39;1644007;84;25756;-75
2021/05/02 05:16:31;;;;;;;14.18;11.45;;;;;;;9.04;82.13;99754.01;1661508;84;25835;-74
2021/05/02 05:18:59;;;;;;;15.08;11.30;;;;;;;9.07;82.12;99748.25;1652300;86;27553;-75
2021/05/02 05:21:27;;;;;;;17.67;12.43;;;;;;;9.10;81.92;99729.17;1654995;84;25490;-74
2021/05/02 05:23:54;;;;;;;15.78;12.18;;;;;;;9.11;81.88;99724.95;1640419;84;25892;-75
2021/05/02 05:26:22;;;;;;;15.05;11.60;;;;;;;9.11;81.85;99730.83;1655931;84;25758;-76
2021/05/02 05:28:49;;;;;;;15.75;12.30;;;;;;;9.14;82.01;99731.25;1661081;84;25838;-76
2021/05/02 05:31:17;;;;;;;14.18;10.85;;;;;;;9.17;81.82;99728.70;1638840;85;28347;-77
2021/05/02 05:33:49;;;;;;;16.00;11.43;;;;;;;9.20;81.81;99732.30;1644894;85;25878;-75
2021/05/02 05:36:17;;;;;;;15.53;12.23;;;;;;;9.21;81.88;99721.93;1671428;84;25864;-77
2021/05/02 05:38:45;;;;;;;17.50;11.88;;;;;;;9.25;81.88;99715.99;1646571;85;26367;-75
2021/05/02 05:41:12;;;;;;;14.33;11.53;;;;;;;9.26;81.70;99707.44;1648662;85;25807;-75
2021/05/02 05:43:40;;;;;;;14.05;11.18;;;;;;;9.25;81.61;99707.14;1629124;87;27750;-75
2021/05/02 05:46:07;;;;;;;13.90;10.53;;;;;;;9.23;81.72;99694.50;1634787;85;26091;-75
2021/05/02 05:48:34;;;;;;;15.53;11.35;;;;;;;9.24;81.63;99689.45;1670026;83;25769;-75
2021/05/02 05:51:03;;;;;;;14.58;11.50;;;;;;;9.25;81.66;99685.77;1655754;84;25777;-75
2021/05/02 05:53:31;;;;;;;15.38;11.30;;;;;;;9.25;81.77;99679.92;1641448;84;26000;-75
2021/05/02 05:55:58;;;;;;;16.48;11.10;;;;;;;9.26;81.79;99676.20;1638639;86;28509;-75
2021/05/02 05:58:27;;;;;;;16.48;11.93;;;;;;;9.28;81.71;99670.68;1674512;84;26446;-75
2021/05/02 06:00:54;;;;;;;16.60;11.57;;;;;;;9.28;81.69;99662.67;1660831;84;25697;-75
2021/05/02 06:03:22;;;;;;;14.00;11.20;;;;;;;9.28;81.69;99659.99;1671522;84;25761;-75
2021/05/02 06:05:49;;;;;;;14.35;11.63;;;;;;;9.29;81.77;99654.44;1664178;84;26098;-75
2021/05/02 06:08:16;;;;;;;16.30;11.95;;;;;;;9.31;81.69;99643.53;1656942;84;27544;-74
2021/05/02 06:10:44;;;;;;;14.75;11.35;;;;;;;9.34;81.83;99642.61;1651348;84;26642;-75
2021/05/02 06:13:11;;;;;;;18.42;12.95;;;;;;;9.39;81.51;99631.31;1638947;84;26300;-75
2021/05/02 06:15:39;;;;;;;15.75;11.53;;;;;;;9.39;81.52;99625.97;1662134;84;26417;-75
2021/05/02 06:18:06;;;;;;;17.20;11.75;;;;;;;9.39;81.44;99604.59;1662186;84;25966;-75
2021/05/02 06:20:33;;;;;;;16.73;11.60;;;;;;;9.39;81.49;99605.92;1636875;84;27328;-75
2021/05/02 06:23:01;;;;;;;13.05;10.55;;;;;;;9.38;81.41;99598.95;1644404;83;25919;-75
2021/05/02 06:25:28;;;;;;;18.80;11.63;;;;;;;9.38;81.45;99604.80;1631382;84;25793;-75
2021/05/02 06:27:56;;;;;;;14.00;10.58;;;;;;;9.38;81.53;99597.62;1657875;84;25818;-75
2021/05/02 06:30:25;;;;;;;15.55;12.50;;;;;;;9.40;81.62;99588.87;1676977;84;25890;-75
2021/05/02 06:32:52;;;;;;;14.30;11.48;;;;;;;9.40;81.40;99574.18;1659872;84;27541;-76
2021/05/02 06:35:20;;;;;;;17.90;13.22;;;;;;;9.42;81.42;99572.63;1658467;84;25823;-76
2021/05/02 06:37:47;;;;;;;16.90;11.90;;;;;;;9.44;81.54;99558.55;1655569;84;25848;-75
2021/05/02 06:40:15;;;;;;;14.63;10.98;;;;;;;9.43;81.41;99555.05;1666119;84;26322;-75
2021/05/02 06:42:42;;;;;;;15.55;11.00;;;;;;;9.45;81.57;99554.36;1679209;84;25777;-75
2021/05/02 06:45:11;;;;;;;12.75;10.45;;;;;;;9.46;81.43;99548.47;1646929;84;28523;-75
2021/05/02 06:47:40;;;;;;;12.07;10.45;;;;;;;9.48;81.37;99526.37;1668644;84;25844;-75
2021/05/02 06:50:08;;;;;;;16.25;11.83;;;;;;;9.49;81.43;99520.00;1646670;84;25747;-75
2021/05/02 06:52:35;;;;;;;14.20;11.05;;;;;;;9.51;81.41;99518.78;1644656;84;25952;-74
2021/05/02 06:55:06;;;;;;;16.27;11.73;;;;;;;9.54;81.35;99506.86;1648320;84;25845;-75
2021/05/02 06:57:33;;;;;;;15.18;11.10;;;;;;;9.58;81.49;99496.05;1667849;84;27564;-75
2021/05/02 07:00:01;;;;;;;16.50;11.88;;;;;;;9.60;81.26;99485.98;1648961;85;26020;-75
2021/05/02 07:02:29;;;;;;;15.30;10.18;;;;;;;9.63;81.39;99487.70;1667650;84;25912;-75
2021/05/02 07:04:56;;;;;;;18.02;11.73;;;;;;;9.67;81.34;99473.40;1669096;84;25985;-75
2021/05/02 07:07:23;;;;;;;15.80;11.80;;;;;;;9.71;81.35;99460.74;1617142;86;25836;-75
2021/05/02 07:09:51;;;;;;;17.42;11.55;;;;;;;9.75;81.09;99455.28;1637528;84;27345;-75
2021/05/02 07:12:20;;;;;;;15.93;11.38;;;;;;;9.78;81.13;99458.05;1654045;84;25875;-75
2021/05/02 07:14:47;;;;;;;14.45;11.18;;;;;;;9.78;80.81;99454.88;1661980;84;25789;-75
2021/05/02 07:17:16;;;;;;;14.93;11.25;;;;;;;9.79;80.79;99449.84;1675589;84;25857;-75
2021/05/02 07:19:43;;;;;;;15.45;11.55;;;;;;;9.79;80.83;99445.84;1657908;84;25957;-75
2021/05/02 07:22:10;;;;;;;14.70;10.95;;;;;;;9.81;80.91;99437.59;1655132;84;27547;-75
2021/05/02 07:24:38;;;;;;;13.88;10.28;;;;;;;9.80;80.84;99415.38;1638286;84;25749;-75
2021/05/02 07:27:05;;;;;;;14.40;11.28;;;;;;;9.79;80.80;99407.06;1656753;84;25879;-77
2021/05/02 07:29:33;;;;;;;17.10;10.88;;;;;;;9.79;80.90;99401.71;1673632;81;26269;-77
2021/05/02 07:32:00;;;;;;;14.70;11.60;;;;;;;9.81;81.10;99382.77;1669338;84;25507;-78
2021/05/02 07:34:27;;;;;;;14.90;11.20;;;;;;;9.79;81.32;99374.97;1661050;82;27555;-77
2021/05/02 07:36:55;;;;;;;15.85;11.18;;;;;;;9.77;81.45;99362.84;1649140;85;26134;-77
2021/05/02 07:39:23;;;;;;;15.25;11.60;;;;;;;9.77;81.78;99352.14;1663677;84;25784;-77
2021/05/02 07:41:52;;;;;;;13.43;10.45;;;;;;;9.76;81.70;99346.47;1665878;84;26264;-79
2021/05/02 07:44:20;;;;;;;15.38;11.03;;;;;;;9.74;81.96;99331.98;1645746;85;25391;-77
2021/05/02 07:46:48;;;;;;;15.53;11.85;;;;;;;9.73;82.01;99324.98;1664727;84;28443;-75
2021/05/02 07:49:15;;;;;;;18.60;12.05;;;;;;;9.75;82.17;99339.50;1681836;84;26616;-76
2021/05/02 07:51:42;;;;;;;16.65;12.05;;;;;;;9.75;82.48;99338.95;1662591;84;25829;-76
2021/05/02 07:54:10;;;;;;;14.85;11.68;;;;;;;9.78;82.49;99345.74;1644722;84;26434;-75
2021/05/02 07:56:37;;;;;;;14.87;11.88;;;;;;;9.76;82.60;99342.46;1666676;84;25713;-77
2021/05/02 07:59:05;;;;;;;16.52;10.85;;;;;;;9.73;82.52;99333.55;1647143;85;27391;-76
2021/05/02 08:01:32;;;;;;;15.50;10.70;;;;;;;9.73;82.73;99325.52;1635136;85;26164;-76
2021/05/02 08:03:59;;;;;;;16.42;12.88;;;;;;;9.69;82.82;99327.78;1650304;85;25876;-76
2021/05/02 08:06:26;;;;;;;15.25;12.18;;;;;;;9.67;82.90;99327.68;1672491;84;26479;-74
2021/05/02 08:08:54;;;;;;;16.62;12.53;;;;;;;9.65;83.11;99329.23;1654824;85;25894;-74
2021/05/02 08:11:21;;;;;;;16.40;11.85;;;;;;;9.63;82.95;99325.95;1668394;84;27635;-76
2021/05/02 08:13:49;;;;;;;14.87;11.78;;;;;;;9.63;83.09;99340.66;1679738;84;26106;-74
2021/05/02 08:16:16;;;;;;;14.03;10.58;;;;;;;9.63;83.23;99329.97;1663262;84;26137;-75
2021/05/02 08:18:43;;;;;;;13.65;11.97;;;;;;;9.62;83.48;99315.48;1673700;84;26292;-75
2021/05/02 08:21:11;;;;;;;17.52;13.22;;;;;;;9.60;83.72;99302.84;1668312;84;25839;-76
2021/05/02 08:23:39;;;;;;;11.78;9.45;;;;;;;9.55;84.57;99314.67;1651927;85;28466;-76
2021/05/02 08:26:07;;;;;;;16.67;13.28;;;;;;;9.51;84.65;99326.31;1649265;85;25909;-75
2021/05/02 08:28:34;;;;;;;17.67;12.43;;;;;;;9.48;84.38;99317.38;1654151;84;25832;-75
2021/05/02 08:31:01;;;;;;;18.45;12.33;;;;;;;9.49;84.62;99322.20;1634050;84;25764;-76
2021/05/02 08:33:29;;;;;;;15.80;12.35;;;;;;;9.49;84.81;99314.19;1621684;84;26399;-75
2021/05/02 08:35:56;;;;;;;19.77;13.08;;;;;;;9.48;84.73;99308.02;1630560;86;27249;-74
2021/05/02 08:38:23;;;;;;;15.72;11.60;;;;;;;9.47;84.94;99306.39;1633299;84;25866;-74
2021/05/02 08:40:51;;;;;;;15.93;11.80;;;;;;;9.45;85.35;99308.96;1647504;84;26357;-75
2021/05/02 08:43:18;;;;;;;18.92;13.13;;;;;;;9.44;85.53;99302.79;1615904;87;25920;-76
2021/05/02 08:45:47;;;;;;;15.38;12.30;;;;;;;9.44;85.70;99296.11;1659866;86;25855;-75
2021/05/02 08:48:14;;;;;;;17.77;12.20;;;;;;;9.46;85.97;99298.05;1657418;84;28444;-72
2021/05/02 08:50:41;;;;;;;17.92;13.20;;;;;;;9.49;86.43;99298.16;1657661;84;26124;-74
2021/05/02 08:53:09;;;;;;;18.73;13.40;;;;;;;9.50;85.97;99321.16;1653449;84;26617;-74
2021/05/02 08:55:36;;;;;;;15.38;12.30;;;;;;;9.54;85.96;99335.77;1650474;85;26345;-73
2021/05/02 08:58:04;;;;;;;17.75;13.40;;;;;;;9.55;86.21;99292.78;1627266;84;25937;-75
2021/05/02 09:00:33;;;;;;;16.60;12.43;;;;;;;9.52;86.37;99284.34;1654902;84;27617;-73
2021/05/02 09:03:00;;;;;;;20.08;12.85;;;;;;;9.49;86.93;99271.42;1601305;87;26286;-75
2021/05/02 09:05:32;;;;;;;16.62;13.88;;;;;;;9.44;86.92;99248.00;1654864;84;25755;-75
2021/05/02 09:07:59;;;;;;;17.30;11.53;;;;;;;9.41;86.97;99259.09;1676939;84;25968;-75
2021/05/02 09:10:32;;;;;;;17.15;11.90;;;;;;;9.40;87.48;99272.69;1655121;84;26617;-75
2021/05/02 09:13:02;;;;;;;16.90;12.03;;;;;;;9.36;87.73;99246.91;1660573;84;27536;-74
2021/05/02 09:15:30;;;;;;;17.70;13.15;;;;;;;9.34;87.71;99260.45;1686443;83;25823;-75
2021/05/02 09:20:53;;;;;;;17.30;13.95;;;;;;;9.39;87.50;99279.88;1793341;79;25727;-74
2021/05/02 09:23:21;;;;;;;18.62;12.98;;;;;;;9.38;87.46;99275.58;1699849;82;26330;-74
2021/05/02 09:25:51;;;;;;;17.80;13.35;;;;;;;9.40;87.75;99248.13;1681418;82;28518;-74
2021/05/02 09:28:40;;;;;;;17.77;13.55;;;;;;;9.37;88.13;99235.71;1743112;80;25720;-74
2021/05/02 09:31:10;;;;;;;15.80;13.08;;;;;;;9.34;87.99;99230.27;1718632;82;25777;-75
2021/05/02 09:33:38;;;;;;;19.57;13.87;;;;;;;9.31;88.07;99216.81;1700307;82;26335;-75
2021/05/02 09:36:12;;;;;;;20.55;14.15;;;;;;;9.31;88.48;99204.78;1704690;82;25820;-75
2021/05/02 09:38:40;;;;;;;18.37;13.28;;;;;;;9.31;88.23;99205.30;1706236;82;27993;-75
2021/05/02 09:41:10;;;;;;;17.65;13.38;;;;;;;9.31;88.35;99207.97;1669157;82;26190;-74
2021/05/02 09:43:48;;;;;;;17.82;12.68;;;;;;;9.30;88.46;99193.78;1685421;82;25734;-74
2021/05/02 09:46:33;;;;;;;17.57;13.55;;;;;;;9.30;88.62;99187.64;1729593;81;25960;-75
2021/05/02 09:49:13;;;;;;;18.32;13.15;;;;;;;9.30;88.62;99182.30;1736246;80;25972;-74
2021/05/02 09:51:54;;;;;;;20.43;14.98;;;;;;;9.31;89.01;99184.74;1692226;82;27531;-75
2021/05/02 09:54:27;;;;;;;14.20;12.50;;;;;;;9.29;89.19;99161.42;1679923;81;26179;-74
2021/05/02 09:56:55;;;;;;;15.98;12.90;;;;;;;9.29;89.21;99153.92;1711044;81;25855;-74
2021/05/02 09:59:32;;;;;;;18.47;14.03;;;;;;;9.31;89.29;99141.16;1738590;80;25763;-74
2021/05/02 10:02:05;;;;;;;18.67;13.80;;;;;;;9.31;89.25;99134.48;1668346;82;26367;-73
2021/05/02 10:04:32;;;;;;;19.70;14.47;;;;;;;9.31;89.42;99119.28;1695685;82;27743;-75
2021/05/02 10:07:02;;;;;;;15.80;13.00;;;;;;;9.34;89.41;99110.02;1710985;81;26082;-74
2021/05/02 10:09:30;;;;;;;16.30;12.90;;;;;;;9.33;90.14;99102.52;1733916;81;26023;-79
2021/05/02 10:11:57;;;;;;;16.37;13.95;;;;;;;9.32;90.20;99094.72;1692965;82;25792;-76
2021/05/02 10:14:24;;;;;;;17.37;13.25;;;;;;;9.32;90.08;99095.52;1699814;83;26413;-75
2021/05/02 10:16:52;;;;;;;15.25;12.90;;;;;;;9.32;90.45;99084.83;1691133;83;27331;-75
2021/05/02 10:19:19;;;;;;;14.43;12.53;;;;;;;9.32;90.41;99087.50;1730153;81;26069;-76
2021/05/02 10:21:47;;;;;;;17.65;13.03;;;;;;;9.34;90.36;99082.76;1670265;81;26469;-77
2021/05/02 10:24:16;;;;;;;13.62;11.35;;;;;;;9.36;90.39;99088.42;1711216;81;25406;-76
2021/05/02 10:26:44;;;;;;;13.15;10.72;;;;;;;9.37;90.63;99083.39;1705905;81;26440;-74
2021/05/02 10:29:11;;;;;;;13.43;11.70;;;;;;;9.38;90.68;99089.02;1700441;79;28423;-76
2021/05/02 10:31:42;;;;;;;15.40;12.75;;;;;;;9.38;90.30;99087.69;1607330;85;26010;-76
2021/05/02 10:34:37;;;;;;;13.28;10.85;;;;;;;9.39;90.52;99083.99;1681813;85;25829;-75
2021/05/02 10:37:27;;;;;;;13.03;10.43;;;;;;;9.41;90.36;99080.05;1657431;85;25790;-75
2021/05/02 10:40:06;;;;;;;14.77;11.60;;;;;;;9.44;90.61;99072.12;1658895;85;25865;-75
2021/05/02 10:42:41;;;;;;;12.05;10.30;;;;;;;9.47;90.40;99070.36;1616519;85;27732;-75
2021/05/02 10:45:35;;;;;;;12.70;10.48;;;;;;;9.47;90.63;99064.51;1654593;85;25877;-75
2021/05/02 10:48:17;;;;;;;12.68;10.20;;;;;;;9.47;90.62;99063.17;1665841;83;25993;-75
2021/05/02 10:50:47;;;;;;;12.95;10.68;;;;;;;9.46;90.18;99058.02;1640886;86;26145;-75
2021/05/02 10:53:21;;;;;;;11.12;9.93;;;;;;;9.46;90.40;99048.16;1547661;88;25924;-74
2021/05/02 10:56:05;;;;;;;12.53;9.38;;;;;;;9.49;90.42;99044.23;1795708;77;25755;-74
2021/05/02 10:58:35;;;;;;;9.83;8.83;;;;;;;9.44;90.51;99036.04;1711045;80;26545;-75
2021/05/02 11:01:08;;;;;;;11.10;9.90;;;;;;;9.43;90.81;99031.75;1714737;80;27313;-74
2021/05/02 11:06:50;;;;;;;11.73;10.28;;;;;;;9.49;90.62;99020.18;1789285;79;25790;-75
2021/05/02 11:09:18;;;;;;;12.68;10.53;;;;;;;9.42;90.61;99012.21;1759525;80;26531;-74
2021/05/02 11:11:54;;;;;;;13.28;11.05;;;;;;;9.41;90.97;99003.88;1703396;82;27393;-75
2021/05/02 11:14:26;;;;;;;12.43;10.38;;;;;;;9.43;90.80;98998.34;1719267;82;25850;-75
2021/05/02 11:17:05;;;;;;;12.10;10.60;;;;;;;9.43;90.78;98995.67;1703723;82;25861;-75
2021/05/02 11:19:38;;;;;;;12.88;10.08;;;;;;;9.44;90.84;98991.43;1700413;82;26554;-75
2021/05/02 11:22:08;;;;;;;11.40;9.58;;;;;;;9.46;90.90;98977.33;1702046;82;25758;-75
2021/05/02 11:24:51;;;;;;;14.10;10.82;;;;;;;9.45;91.10;98982.39;1730681;82;27539;-75
2021/05/02 11:27:38;;;;;;;12.28;10.35;;;;;;;9.42;91.34;98966.78;1701128;83;25740;-76
2021/05/02 11:30:11;;;;;;;12.93;10.30;;;;;;;9.40;91.89;98964.84;1665326;83;25761;-78
2021/05/02 11:32:38;;;;;;;11.53;9.73;;;;;;;9.38;91.32;98959.41;1673341;83;26558;-78
2021/05/02 11:35:14;;;;;;;10.95;9.18;;;;;;;9.38;91.59;98945.55;1665801;85;25888;-78
2021/05/02 11:37:56;;;;;;;13.75;10.95;;;;;;;9.39;91.72;98938.36;1670224;83;27662;-78
2021/05/02 11:40:34;;;;;;;12.70;10.25;;;;;;;9.38;91.73;98924.17;1676548;82;26394;-77
2021/05/02 11:43:17;;;;;;;11.35;10.15;;;;;;;9.39;92.12;98918.31;1694530;83;25732;-79
2021/05/02 11:45:58;;;;;;;11.40;10.20;;;;;;;9.39;92.01;98924.45;1701321;83;25804;-78